Time,TemperatureF,DewpointF,PressureIn,WindDirection,WindDirectionDegrees,WindSpeedMPH,WindSpeedGustMPH,Humidity,HourlyPrecipIn,Conditions,Clouds,dailyrainin,SoftwareType,DateUTC
2013-09-25 00:00:00,64.0,45.5,29.85,North,11,3.0,3.0,51,0.00,CLR,,0.00,WeatherDisplay:10.37,2013-09-25 04:00:00,
2013-09-25 00:01:00,45.7,42.6,29.80,WSW,248,0.0,0.0,89,0.00,CLR,,0.00,WeatherDisplay:10.37,2013-09-25 04:01:00,
2013-09-25 00:02:00,45.7,42.6,29.80,WSW,248,0.0,0.0,89,0.00,CLR,,0.00,WeatherDisplay:10.37,2013-09-25 04:02:00,
2013-09-25 00:05:00,64.0,45.5,29.85,NW,315,3.0,3.0,51,0.00,CLR,,0.00,WeatherDisplay:10.37,2013-09-25 04:05:00,
2013-09-25 00:07:00,45.7,42.6,29.80,West,270,0.0,0.0,89,0.00,CLR,,0.00,WeatherDisplay:10.37,2013-09-25 04:07:00,
2013-09-25 00:10:00,66.0,45.7,29.85,North,351,5.0,5.0,48,0.00,CLR,,0.00,WeatherDisplay:10.37,2013-09-25 04:10:00,
2013-09-25 00:12:00,45.7,42.6,29.80,West,270,0.0,0.0,89,0.00,CLR,,0.00,WeatherDisplay:10.37,2013-09-25 04:12:00,
2013-09-25 00:15:00,66.0,45.7,29.85,East,82,5.0,5.0,48,0.00,CLR,,0.00,WeatherDisplay:10.37,2013-09-25 04:15:00,
2013-09-25 00:17:00,45.9,43.1,29.80,West,270,0.0,0.0,90,0.00,CLR,,0.00,WeatherDisplay:10.37,2013-09-25 04:17:00,
2013-09-25 00:20:00,66.0,45.7,29.85,East,88,2.0,3.0,48,0.00,CLR,,0.00,WeatherDisplay:10.37,2013-09-25 04:20:00,
2013-09-25 00:22:00,46.0,43.2,29.80,West,270,0.0,0.0,90,0.00,CLR,,0.00,WeatherDisplay:10.37,2013-09-25 04:22:00,
2013-09-25 00:25:00,66.0,45.7,29.85,East,79,2.0,2.0,48,0.00,CLR,,0.00,WeatherDisplay:10.37,2013-09-25 04:25:00,
2013-09-25 00:27:00,46.2,43.7,29.80,West,270,0.0,0.0,91,0.00,CLR,,0.00,WeatherDisplay:10.37,2013-09-25 04:27:00,
2013-09-25 00:30:00,66.0,45.7,29.85,ENE,68,2.0,2.0,48,0.00,CLR,,0.00,WeatherDisplay:10.37,2013-09-25 04:30:00,
2013-09-25 00:32:00,46.4,43.9,29.80,West,270,0.0,0.0,91,0.00,CLR,,0.00,WeatherDisplay:10.37,2013-09-25 04:32:00,
2013-09-25 00:35:00,66.0,47.3,29.85,NE,49,1.0,3.0,51,0.00,CLR,,0.00,WeatherDisplay:10.37,2013-09-25 04:35:00,
2013-09-25 00:37:00,46.6,44.1,29.80,West,270,0.0,0.0,91,0.00,CLR,,0.00,WeatherDisplay:10.37,2013-09-25 04:37:00,
2013-09-25 00:40:00,66.0,47.3,29.85,NNW,328,1.0,3.0,51,0.00,CLR,,0.00,WeatherDisplay:10.37,2013-09-25 04:40:00,
2013-09-25 00:42:00,46.6,44.1,29.80,West,270,0.0,0.0,91,0.00,CLR,,0.00,WeatherDisplay:10.37,2013-09-25 04:42:00,
2013-09-25 00:45:00,67.0,47.7,29.85,NNW,337,2.0,3.0,50,0.00,CLR,,0.00,WeatherDisplay:10.37,2013-09-25 04:45:00,
2013-09-25 00:47:00,46.6,44.1,29.80,West,270,0.0,0.0,91,0.00,CLR,,0.00,WeatherDisplay:10.37,2013-09-25 04:47:00,
2013-09-25 00:50:00,67.0,47.7,29.85,NNE,30,2.0,2.0,50,0.00,CLR,,0.00,WeatherDisplay:10.37,2013-09-25 04:50:00,
2013-09-25 00:52:00,46.8,44.3,29.80,West,270,0.0,0.0,91,0.00,CLR,,0.00,WeatherDisplay:10.37,2013-09-25 04:52:00,
2013-09-25 00:55:00,67.0,47.7,29.85,NE,45,2.0,2.0,50,0.00,CLR,,0.00,WeatherDisplay:10.37,2013-09-25 04:55:00,
2013-09-25 00:57:00,46.9,44.4,29.80,West,270,0.0,0.0,91,0.00,CLR,,0.00,WeatherDisplay:10.37,2013-09-25 04:57:00,
2013-09-25 01:00:00,67.0,46.7,29.85,ESE,117,3.0,5.0,48,0.00,CLR,,0.00,WeatherDisplay:10.37,2013-09-25 05:00:00,
2013-09-25 01:02:00,47.1,44.6,29.79,West,270,0.0,0.0,91,0.00,CLR,,0.00,WeatherDisplay:10.37,2013-09-25 05:02:00,
2013-09-25 01:05:00,67.0,46.7,29.85,SSE,158,3.0,5.0,48,0.00,CLR,,0.00,WeatherDisplay:10.37,2013-09-25 05:05:00,
2013-09-25 01:07:00,47.3,44.8,29.79,NNE,22,0.0,0.0,91,0.00,CLR,,0.00,WeatherDisplay:10.37,2013-09-25 05:07:00,
2013-09-25 01:10:00,66.0,46.8,29.85,SE,145,2.0,5.0,50,0.00,CLR,,0.00,WeatherDisplay:10.37,2013-09-25 05:10:00,
2013-09-25 01:12:00,47.3,44.5,29.79,West,270,0.0,0.0,90,0.00,CLR,,0.00,WeatherDisplay:10.37,2013-09-25 05:12:00,
2013-09-25 01:15:00,66.0,46.8,29.85,ENE,73,2.0,0.0,50,0.00,CLR,,0.00,WeatherDisplay:10.37,2013-09-25 05:15:00,
2013-09-25 01:17:00,47.3,44.5,29.79,West,270,0.0,0.0,90,0.00,CLR,,0.00,WeatherDisplay:10.37,2013-09-25 05:17:00,
2013-09-25 01:20:00,66.0,47.9,29.85,NE,39,2.0,2.0,52,0.00,CLR,,0.00,WeatherDisplay:10.37,2013-09-25 05:20:00,
2013-09-25 01:22:00,47.1,44.3,29.79,WSW,248,0.0,0.0,90,0.00,CLR,,0.00,WeatherDisplay:10.37,2013-09-25 05:22:00,
2013-09-25 01:25:00,66.0,47.9,29.85,NW,305,2.0,2.0,52,0.00,CLR,,0.00,WeatherDisplay:10.37,2013-09-25 05:25:00,
2013-09-25 01:27:00,46.9,44.1,29.79,South,180,0.0,0.0,90,0.00,CLR,,0.00,WeatherDisplay:10.37,2013-09-25 05:27:00,
2013-09-25 01:30:00,66.0,47.9,29.85,West,270,2.0,2.0,52,0.00,CLR,,0.00,WeatherDisplay:10.37,2013-09-25 05:30:00,
2013-09-25 01:32:00,46.6,43.8,29.79,West,270,0.0,0.0,90,0.00,CLR,,0.00,WeatherDisplay:10.37,2013-09-25 05:32:00,
2013-09-25 01:35:00,69.0,47.4,29.83,West,270,3.0,4.0,46,0.00,CLR,,0.00,WeatherDisplay:10.37,2013-09-25 05:35:00,
2013-09-25 01:37:00,46.2,43.4,29.79,West,270,0.0,0.0,90,0.00,CLR,,0.00,WeatherDisplay:10.37,2013-09-25 05:37:00,
2013-09-25 01:40:00,69.0,47.4,29.83,West,270,3.0,4.0,46,0.00,CLR,,0.00,WeatherDisplay:10.37,2013-09-25 05:40:00,
2013-09-25 01:42:00,46.2,43.4,29.79,West,270,0.0,0.0,90,0.00,CLR,,0.00,WeatherDisplay:10.37,2013-09-25 05:42:00,
2013-09-25 01:45:00,68.0,47.6,29.83,West,264,2.0,4.0,48,0.00,CLR,,0.00,WeatherDisplay:10.37,2013-09-25 05:45:00,
2013-09-25 01:47:00,46.0,43.2,29.79,West,270,0.0,0.0,90,0.00,CLR,,0.00,WeatherDisplay:10.37,2013-09-25 05:47:00,
2013-09-25 01:50:00,68.0,47.6,29.83,South,189,2.0,3.0,48,0.00,CLR,,0.00,WeatherDisplay:10.37,2013-09-25 05:50:00,
2013-09-25 01:52:00,45.9,43.1,29.79,WNW,292,0.0,0.0,90,0.00,CLR,,0.00,WeatherDisplay:10.37,2013-09-25 05:52:00,
2013-09-25 01:55:00,68.0,47.6,29.83,SE,135,2.0,3.0,48,0.00,CLR,,0.00,WeatherDisplay:10.37,2013-09-25 05:55:00,
2013-09-25 01:57:00,45.7,42.9,29.79,WNW,292,0.0,0.0,90,0.00,CLR,,0.00,WeatherDisplay:10.37,2013-09-25 05:57:00,
2013-09-25 02:00:00,68.0,47.6,29.83,ENE,70,2.0,4.0,48,0.00,CLR,,0.00,WeatherDisplay:10.37,2013-09-25 06:00:00,
2013-09-25 02:02:00,45.5,42.7,29.80,WNW,292,0.0,0.0,90,0.00,CLR,,0.00,WeatherDisplay:10.37,2013-09-25 06:02:00,
2013-09-25 02:05:00,68.0,47.6,29.83,NNE,22,2.0,4.0,48,0.00,CLR,,0.00,WeatherDisplay:10.37,2013-09-25 06:05:00,
2013-09-25 02:08:00,45.5,42.7,29.80,West,270,0.0,0.0,90,0.00,CLR,,0.00,WeatherDisplay:10.37,2013-09-25 06:08:00,
2013-09-25 02:10:00,68.0,48.1,29.83,NNE,31,1.0,4.0,49,0.00,CLR,,0.00,WeatherDisplay:10.37,2013-09-25 06:10:00,
2013-09-25 02:13:00,45.3,42.5,29.80,West,270,0.0,0.0,90,0.00,CLR,,0.00,WeatherDisplay:10.37,2013-09-25 06:13:00,
2013-09-25 02:15:00,68.0,48.1,29.83,SE,128,1.0,2.0,49,0.00,CLR,,0.00,WeatherDisplay:10.37,2013-09-25 06:15:00,
2013-09-25 02:18:00,45.1,42.3,29.79,West,270,0.0,0.0,90,0.00,CLR,,0.00,WeatherDisplay:10.37,2013-09-25 06:18:00,
2013-09-25 02:20:00,71.0,48.0,29.83,SE,143,3.0,3.0,44,0.00,CLR,,0.00,WeatherDisplay:10.37,2013-09-25 06:20:00,
2013-09-25 02:23:00,45.1,42.3,29.79,WNW,292,0.0,0.0,90,0.00,CLR,,0.00,WeatherDisplay:10.37,2013-09-25 06:23:00,
2013-09-25 02:25:00,71.0,48.0,29.83,NE,34,3.0,3.0,44,0.00,CLR,,0.00,WeatherDisplay:10.37,2013-09-25 06:25:00,
2013-09-25 02:28:00,45.0,42.2,29.79,West,270,0.0,0.0,90,0.00,CLR,,0.00,WeatherDisplay:10.37,2013-09-25 06:28:00,
2013-09-25 02:30:00,71.0,48.0,29.83,NNE,22,3.0,3.0,44,0.00,CLR,,0.00,WeatherDisplay:10.37,2013-09-25 06:30:00,
2013-09-25 02:33:00,44.6,41.8,29.79,West,270,0.0,0.0,90,0.00,CLR,,0.00,WeatherDisplay:10.37,2013-09-25 06:33:00,
2013-09-25 02:35:00,66.0,46.8,29.83,NE,47,2.0,3.0,50,0.00,CLR,,0.00,WeatherDisplay:10.37,2013-09-25 06:35:00,
2013-09-25 02:38:00,44.2,41.5,29.79,West,270,0.0,0.0,90,0.00,CLR,,0.00,WeatherDisplay:10.37,2013-09-25 06:38:00,
2013-09-25 02:40:00,66.0,46.8,29.83,South,177,2.0,0.0,50,0.00,CLR,,0.00,WeatherDisplay:10.37,2013-09-25 06:40:00,
2013-09-25 02:43:00,44.1,41.4,29.78,West,270,0.0,0.0,90,0.00,CLR,,0.00,WeatherDisplay:10.37,2013-09-25 06:43:00,
2013-09-25 02:45:00,66.0,48.4,29.83,South,179,0.0,2.0,53,0.00,CLR,,0.00,WeatherDisplay:10.37,2013-09-25 06:45:00,
2013-09-25 02:48:00,43.7,41.0,29.78,West,270,0.0,0.0,90,0.00,CLR,,0.00,WeatherDisplay:10.37,2013-09-25 06:48:00,
2013-09-25 02:50:00,66.0,48.4,29.83,South,174,0.0,2.0,53,0.00,CLR,,0.00,WeatherDisplay:10.37,2013-09-25 06:50:00,
2013-09-25 02:53:00,43.5,40.8,29.78,West,270,0.0,0.0,90,0.00,CLR,,0.00,WeatherDisplay:10.37,2013-09-25 06:53:00,
2013-09-25 02:55:00,66.0,48.4,29.83,SSE,158,0.0,2.0,53,0.00,CLR,,0.00,WeatherDisplay:10.37,2013-09-25 06:55:00,
2013-09-25 02:58:00,43.3,40.6,29.78,West,270,0.0,0.0,90,0.00,CLR,,0.00,WeatherDisplay:10.37,2013-09-25 06:58:00,
2013-09-25 03:00:00,67.0,47.2,29.83,ESE,107,1.0,3.0,49,0.00,CLR,,0.00,WeatherDisplay:10.37,2013-09-25 07:00:00,
2013-09-25 03:03:00,43.3,40.6,29.78,West,270,0.0,0.0,90,0.00,CLR,,0.00,WeatherDisplay:10.37,2013-09-25 07:03:00,
2013-09-25 03:05:00,67.0,47.2,29.83,East,90,1.0,3.0,49,0.00,CLR,,0.00,WeatherDisplay:10.37,2013-09-25 07:05:00,
2013-09-25 03:08:00,43.3,40.6,29.78,West,270,0.0,0.0,90,0.00,CLR,,0.00,WeatherDisplay:10.37,2013-09-25 07:08:00,
2013-09-25 03:10:00,67.0,47.7,29.83,ESE,115,1.0,3.0,50,0.00,CLR,,0.00,WeatherDisplay:10.37,2013-09-25 07:10:00,
2013-09-25 03:13:00,43.3,40.6,29.78,West,270,0.0,0.0,90,0.00,CLR,,0.00,WeatherDisplay:10.37,2013-09-25 07:13:00,
2013-09-25 03:15:00,67.0,47.7,29.83,SSE,149,1.0,2.0,50,0.00,CLR,,0.00,WeatherDisplay:10.37,2013-09-25 07:15:00,
2013-09-25 03:18:00,43.7,41.2,29.78,West,270,0.0,0.0,91,0.00,CLR,,0.00,WeatherDisplay:10.37,2013-09-25 07:18:00,
2013-09-25 03:20:00,66.0,48.4,29.83,SSE,153,2.0,4.0,53,0.00,CLR,,0.00,WeatherDisplay:10.37,2013-09-25 07:20:00,
2013-09-25 03:23:00,43.3,40.8,29.78,West,270,0.0,0.0,91,0.00,CLR,,0.00,WeatherDisplay:10.37,2013-09-25 07:23:00,
2013-09-25 03:25:00,66.0,48.4,29.83,SE,127,2.0,4.0,53,0.00,CLR,,0.00,WeatherDisplay:10.37,2013-09-25 07:25:00,
2013-09-25 03:28:00,43.2,40.8,29.78,West,270,0.0,0.0,91,0.00,CLR,,0.00,WeatherDisplay:10.37,2013-09-25 07:28:00,
2013-09-25 03:30:00,66.0,48.4,29.83,ESE,112,2.0,4.0,53,0.00,CLR,,0.00,WeatherDisplay:10.37,2013-09-25 07:30:00,
2013-09-25 03:33:00,43.3,40.8,29.78,West,270,0.0,0.0,91,0.00,CLR,,0.00,WeatherDisplay:10.37,2013-09-25 07:33:00,
2013-09-25 03:35:00,64.0,47.5,29.83,SE,125,3.0,5.0,55,0.00,CLR,,0.00,WeatherDisplay:10.37,2013-09-25 07:35:00,
2013-09-25 03:38:00,43.5,41.3,29.78,NNE,22,0.0,0.0,92,0.00,CLR,,0.00,WeatherDisplay:10.37,2013-09-25 07:38:00,
2013-09-25 03:40:00,64.0,47.5,29.83,SE,134,3.0,5.0,55,0.00,CLR,,0.00,WeatherDisplay:10.37,2013-09-25 07:40:00,
2013-09-25 03:45:00,63.0,47.1,29.83,SE,140,2.0,5.0,56,0.00,CLR,,0.00,WeatherDisplay:10.37,2013-09-25 07:45:00,
2013-09-25 03:50:00,63.0,47.1,29.83,SSE,161,2.0,5.0,56,0.00,CLR,,0.00,WeatherDisplay:10.37,2013-09-25 07:50:00,
2013-09-25 03:55:00,63.0,47.1,29.83,South,180,2.0,5.0,56,0.00,CLR,,0.00,WeatherDisplay:10.37,2013-09-25 07:55:00,
2013-09-25 04:00:00,61.0,45.7,29.83,SE,136,3.0,3.0,57,0.00,CLR,,0.00,WeatherDisplay:10.37,2013-09-25 08:00:00,
2013-09-25 04:05:00,61.0,45.7,29.83,ESE,112,3.0,3.0,57,0.00,CLR,,0.00,WeatherDisplay:10.37,2013-09-25 08:05:00,
2013-09-25 04:10:00,61.0,45.7,29.83,ESE,112,3.0,4.0,57,0.00,CLR,,0.00,WeatherDisplay:10.37,2013-09-25 08:10:00,
2013-09-25 04:15:00,61.0,45.7,29.83,ESE,112,3.0,4.0,57,0.00,CLR,,0.00,WeatherDisplay:10.37,2013-09-25 08:15:00,
2013-09-25 04:20:00,60.0,44.7,29.83,ESE,112,6.0,6.0,57,0.00,CLR,,0.00,WeatherDisplay:10.37,2013-09-25 08:20:00,
2013-09-25 04:25:00,60.0,44.7,29.83,ESE,112,6.0,6.0,57,0.00,CLR,,0.00,WeatherDisplay:10.37,2013-09-25 08:25:00,
2013-09-25 04:30:00,60.0,44.7,29.83,ESE,112,6.0,6.0,57,0.00,CLR,,0.00,WeatherDisplay:10.37,2013-09-25 08:30:00,
2013-09-25 04:35:00,61.0,45.7,29.83,ESE,112,5.0,6.0,57,0.00,CLR,,0.00,WeatherDisplay:10.37,2013-09-25 08:35:00,
2013-09-25 04:40:00,61.0,45.7,29.83,ESE,112,5.0,6.0,57,0.00,CLR,,0.00,WeatherDisplay:10.37,2013-09-25 08:40:00,
2013-09-25 04:45:00,60.0,45.2,29.83,ESE,108,3.0,6.0,58,0.00,CLR,,0.00,WeatherDisplay:10.37,2013-09-25 08:45:00,
2013-09-25 04:50:00,60.0,45.2,29.83,East,97,3.0,5.0,58,0.00,CLR,,0.00,WeatherDisplay:10.37,2013-09-25 08:50:00,
2013-09-25 04:55:00,60.0,45.2,29.83,East,90,3.0,5.0,58,0.00,CLR,,0.00,WeatherDisplay:10.37,2013-09-25 08:55:00,
2013-09-25 05:00:00,59.0,44.7,29.83,East,79,3.0,5.0,59,0.00,CLR,,0.00,WeatherDisplay:10.37,2013-09-25 09:00:00,
2013-09-25 05:05:00,59.0,44.7,29.83,ENE,68,3.0,5.0,59,0.00,CLR,,0.00,WeatherDisplay:10.37,2013-09-25 09:05:00,
2013-09-25 05:10:00,59.0,44.7,29.83,East,80,3.0,5.0,59,0.00,CLR,,0.00,WeatherDisplay:10.37,2013-09-25 09:10:00,
2013-09-25 05:15:00,59.0,44.7,29.83,ESE,103,3.0,3.0,59,0.00,CLR,,0.00,WeatherDisplay:10.37,2013-09-25 09:15:00,
2013-09-25 05:20:00,58.0,43.7,29.83,ESE,112,5.0,5.0,59,0.00,CLR,,0.00,WeatherDisplay:10.37,2013-09-25 09:20:00,
2013-09-25 05:25:00,58.0,43.7,29.83,ESE,112,5.0,5.0,59,0.00,CLR,,0.00,WeatherDisplay:10.37,2013-09-25 09:25:00,
2013-09-25 05:30:00,58.0,43.7,29.83,ESE,112,5.0,5.0,59,0.00,CLR,,0.00,WeatherDisplay:10.37,2013-09-25 09:30:00,
2013-09-25 05:35:00,58.0,44.2,29.83,ESE,112,3.0,5.0,60,0.00,CLR,,0.00,WeatherDisplay:10.37,2013-09-25 09:35:00,
2013-09-25 05:40:00,58.0,44.2,29.83,ESE,112,3.0,3.0,60,0.00,CLR,,0.00,WeatherDisplay:10.37,2013-09-25 09:40:00,
2013-09-25 05:45:00,59.0,45.6,29.83,ESE,112,1.0,3.0,61,0.00,CLR,,0.00,WeatherDisplay:10.37,2013-09-25 09:45:00,
2013-09-25 05:50:00,59.0,45.6,29.83,ESE,112,1.0,3.0,61,0.00,CLR,,0.00,WeatherDisplay:10.37,2013-09-25 09:50:00,
2013-09-25 05:55:00,59.0,45.6,29.83,ESE,112,1.0,3.0,61,0.00,CLR,,0.00,WeatherDisplay:10.37,2013-09-25 09:55:00,
2013-09-25 06:00:00,58.0,44.2,29.83,ESE,112,1.0,2.0,60,0.00,CLR,,0.00,WeatherDisplay:10.37,2013-09-25 10:00:00,
2013-09-25 06:05:00,58.0,44.2,29.83,ESE,112,1.0,2.0,60,0.00,CLR,,0.00,WeatherDisplay:10.37,2013-09-25 10:05:00,
2013-09-25 06:10:00,58.0,44.6,29.85,ESE,104,1.0,2.0,61,0.00,CLR,,0.00,WeatherDisplay:10.37,2013-09-25 10:10:00,
2013-09-25 06:15:00,58.0,44.6,29.85,East,93,1.0,1.0,61,0.00,CLR,,0.00,WeatherDisplay:10.37,2013-09-25 10:15:00,
2013-09-25 06:20:00,58.0,45.0,29.85,East,87,2.0,2.0,62,0.00,CLR,,0.00,WeatherDisplay:10.37,2013-09-25 10:20:00,
2013-09-25 06:25:00,58.0,45.0,29.85,ENE,74,2.0,2.0,62,0.00,CLR,,0.00,WeatherDisplay:10.37,2013-09-25 10:25:00,
2013-09-25 06:30:00,58.0,45.0,29.85,ENE,68,2.0,2.0,62,0.00,CLR,,0.00,WeatherDisplay:10.37,2013-09-25 10:30:00,
2013-09-25 06:35:00,58.0,45.0,29.85,East,84,0.0,2.0,62,0.00,CLR,,0.00,WeatherDisplay:10.37,2013-09-25 10:35:00,
2013-09-25 06:40:00,58.0,45.0,29.85,SSE,165,0.0,0.0,62,0.00,CLR,,0.00,WeatherDisplay:10.37,2013-09-25 10:40:00,
2013-09-25 06:45:00,58.0,45.0,29.85,South,173,2.0,0.0,62,0.00,CLR,,0.00,WeatherDisplay:10.37,2013-09-25 10:45:00,
2013-09-25 06:50:00,58.0,45.0,29.85,SSE,162,2.0,0.0,62,0.00,CLR,,0.00,WeatherDisplay:10.37,2013-09-25 10:50:00,
2013-09-25 06:55:00,58.0,45.0,29.85,SSE,158,2.0,0.0,62,0.00,CLR,,0.00,WeatherDisplay:10.37,2013-09-25 10:55:00,
2013-09-25 07:00:00,58.0,45.9,29.85,SSE,158,0.0,0.0,64,0.00,CLR,,0.00,WeatherDisplay:10.37,2013-09-25 11:00:00,
2013-09-25 07:05:00,58.0,45.9,29.85,SSE,158,0.0,0.0,64,0.00,CLR,,0.00,WeatherDisplay:10.37,2013-09-25 11:05:00,
2013-09-25 07:10:00,58.0,46.3,29.85,SSE,158,0.0,0.0,65,0.00,CLR,,0.00,WeatherDisplay:10.37,2013-09-25 11:10:00,
2013-09-25 07:15:00,58.0,46.3,29.85,SSE,158,0.0,0.0,65,0.00,CLR,,0.00,WeatherDisplay:10.37,2013-09-25 11:15:00,
2013-09-25 07:20:00,57.0,45.7,29.85,SSE,158,0.0,0.0,66,0.00,CLR,,0.00,WeatherDisplay:10.37,2013-09-25 11:20:00,
2013-09-25 07:25:00,57.0,45.7,29.85,SSE,158,0.0,0.0,66,0.00,CLR,,0.00,WeatherDisplay:10.37,2013-09-25 11:25:00,
2013-09-25 07:30:00,57.0,45.7,29.85,SSE,158,0.0,0.0,66,0.00,CLR,,0.00,WeatherDisplay:10.37,2013-09-25 11:30:00,
2013-09-25 07:35:00,57.0,46.1,29.85,SSE,158,0.0,0.0,67,0.00,CLR,,0.00,WeatherDisplay:10.37,2013-09-25 11:35:00,
2013-09-25 07:40:00,57.0,46.1,29.85,SSE,158,0.0,0.0,67,0.00,CLR,,0.00,WeatherDisplay:10.37,2013-09-25 11:40:00,
2013-09-25 07:45:00,57.0,46.9,29.85,SSE,158,0.0,0.0,69,0.00,CLR,,0.00,WeatherDisplay:10.37,2013-09-25 11:45:00,
2013-09-25 07:50:00,57.0,46.9,29.85,SSE,158,0.0,0.0,69,0.00,CLR,,0.00,WeatherDisplay:10.37,2013-09-25 11:50:00,
2013-09-25 07:55:00,57.0,46.9,29.85,SSE,158,0.0,0.0,69,0.00,CLR,,0.00,WeatherDisplay:10.37,2013-09-25 11:55:00,
2013-09-25 08:00:00,57.0,47.3,29.85,South,169,0.0,0.0,70,0.00,CLR,,0.00,WeatherDisplay:10.37,2013-09-25 12:00:00,
2013-09-25 08:05:00,57.0,47.3,29.85,South,180,0.0,0.0,70,0.00,CLR,,0.00,WeatherDisplay:10.37,2013-09-25 12:05:00,
2013-09-25 08:10:00,56.0,46.7,29.85,South,180,0.0,0.0,71,0.00,CLR,,0.00,WeatherDisplay:10.37,2013-09-25 12:10:00,
2013-09-25 08:15:00,56.0,46.7,29.85,South,180,0.0,0.0,71,0.00,CLR,,0.00,WeatherDisplay:10.37,2013-09-25 12:15:00,
2013-09-25 08:20:00,56.0,47.8,29.85,South,174,0.0,0.0,74,0.00,CLR,,0.00,WeatherDisplay:10.37,2013-09-25 12:20:00,
2013-09-25 08:25:00,56.0,47.8,29.85,SE,124,0.0,0.0,74,0.00,CLR,,0.00,WeatherDisplay:10.37,2013-09-25 12:25:00,
2013-09-25 08:30:00,56.0,47.8,29.85,East,90,0.0,0.0,74,0.00,CLR,,0.00,WeatherDisplay:10.37,2013-09-25 12:30:00,
2013-09-25 08:35:00,56.0,47.5,29.88,East,90,0.0,0.0,73,0.00,CLR,,0.00,WeatherDisplay:10.37,2013-09-25 12:35:00,
2013-09-25 08:40:00,56.0,47.5,29.88,East,90,0.0,0.0,73,0.00,CLR,,0.00,WeatherDisplay:10.37,2013-09-25 12:40:00,
2013-09-25 08:45:00,55.0,47.2,29.88,East,90,0.0,1.0,75,0.00,CLR,,0.00,WeatherDisplay:10.37,2013-09-25 12:45:00,
2013-09-25 08:50:00,55.0,47.2,29.88,West,270,0.0,1.0,75,0.00,CLR,,0.00,WeatherDisplay:10.37,2013-09-25 12:50:00,
2013-09-25 08:55:00,55.0,47.2,29.88,West,270,0.0,1.0,75,0.00,CLR,,0.00,WeatherDisplay:10.37,2013-09-25 12:55:00,
2013-09-25 09:00:00,55.0,47.2,29.88,West,270,0.0,0.0,75,0.00,CLR,,0.00,WeatherDisplay:10.37,2013-09-25 13:00:00,
2013-09-25 09:05:00,55.0,47.2,29.88,West,270,0.0,0.0,75,0.00,CLR,,0.00,WeatherDisplay:10.37,2013-09-25 13:05:00,
2013-09-25 09:10:00,55.0,47.6,29.88,West,270,0.0,0.0,76,0.00,CLR,,0.00,WeatherDisplay:10.37,2013-09-25 13:10:00,
2013-09-25 09:15:00,55.0,47.6,29.88,West,270,0.0,0.0,76,0.00,CLR,,0.00,WeatherDisplay:10.37,2013-09-25 13:15:00,
2013-09-25 09:20:00,55.0,47.9,29.88,West,276,0.0,0.0,77,0.00,CLR,,0.00,WeatherDisplay:10.37,2013-09-25 13:20:00,
2013-09-25 09:25:00,55.0,47.9,29.88,NNW,343,0.0,0.0,77,0.00,CLR,,0.00,WeatherDisplay:10.37,2013-09-25 13:25:00,
2013-09-25 09:30:00,55.0,47.9,29.88,NNE,22,0.0,0.0,77,0.00,CLR,,0.00,WeatherDisplay:10.37,2013-09-25 13:30:00,
2013-09-25 09:35:00,55.0,47.6,29.88,NNE,22,0.0,0.0,76,0.00,CLR,,0.00,WeatherDisplay:10.37,2013-09-25 13:35:00,
2013-09-25 09:40:00,55.0,47.6,29.88,NNE,22,0.0,0.0,76,0.00,CLR,,0.00,WeatherDisplay:10.37,2013-09-25 13:40:00,
2013-09-25 09:45:00,55.0,48.3,29.88,North,8,0.0,0.0,78,0.00,CLR,,0.00,WeatherDisplay:10.37,2013-09-25 13:45:00,
2013-09-25 09:50:00,55.0,48.3,29.88,WNW,295,0.0,0.0,78,0.00,CLR,,0.00,WeatherDisplay:10.37,2013-09-25 13:50:00,
2013-09-25 09:55:00,55.0,48.3,29.88,West,270,0.0,0.0,78,0.00,CLR,,0.00,WeatherDisplay:10.37,2013-09-25 13:55:00,
2013-09-25 10:00:00,55.0,47.9,29.88,SW,225,0.0,0.0,77,0.00,CLR,,0.00,WeatherDisplay:10.37,2013-09-25 14:00:00,
2013-09-25 10:05:00,55.0,47.9,29.88,South,180,0.0,0.0,77,0.00,CLR,,0.00,WeatherDisplay:10.37,2013-09-25 14:05:00,
2013-09-25 10:10:00,55.0,47.9,29.88,South,173,0.0,0.0,77,0.00,CLR,,0.00,WeatherDisplay:10.37,2013-09-25 14:10:00,
2013-09-25 10:15:00,55.0,47.9,29.88,SSE,162,0.0,0.0,77,0.00,CLR,,0.00,WeatherDisplay:10.37,2013-09-25 14:15:00,
2013-09-25 10:20:00,55.0,47.9,29.88,SSE,158,0.0,0.0,77,0.00,CLR,,0.00,WeatherDisplay:10.37,2013-09-25 14:20:00,
2013-09-25 10:25:00,55.0,47.9,29.88,SSE,158,0.0,0.0,77,0.00,CLR,,0.00,WeatherDisplay:10.37,2013-09-25 14:25:00,
2013-09-25 10:30:00,55.0,47.9,29.88,SSE,158,0.0,0.0,77,0.00,CLR,,0.00,WeatherDisplay:10.37,2013-09-25 14:30:00,
2013-09-25 10:35:00,55.0,47.6,29.88,SSE,158,0.0,0.0,76,0.00,CLR,,0.00,WeatherDisplay:10.37,2013-09-25 14:35:00,
2013-09-25 10:40:00,55.0,47.6,29.88,SSE,158,0.0,0.0,76,0.00,CLR,,0.00,WeatherDisplay:10.37,2013-09-25 14:40:00,
2013-09-25 10:45:00,55.0,47.9,29.91,South,172,0.0,0.0,77,0.00,CLR,,0.00,WeatherDisplay:10.37,2013-09-25 14:45:00,
2013-09-25 10:50:00,55.0,47.9,29.91,WSW,245,0.0,0.0,77,0.00,CLR,,0.00,WeatherDisplay:10.37,2013-09-25 14:50:00,
2013-09-25 10:55:00,55.0,47.9,29.91,West,270,0.0,0.0,77,0.00,CLR,,0.00,WeatherDisplay:10.37,2013-09-25 14:55:00,
2013-09-25 11:00:00,54.0,47.0,29.91,West,270,0.0,0.0,77,0.00,CLR,,0.00,WeatherDisplay:10.37,2013-09-25 15:00:00,
2013-09-25 11:05:00,54.0,47.0,29.91,West,270,0.0,0.0,77,0.00,CLR,,0.00,WeatherDisplay:10.37,2013-09-25 15:05:00,
2013-09-25 11:10:00,54.0,47.3,29.91,West,268,0.0,0.0,78,0.00,CLR,,0.00,WeatherDisplay:10.37,2013-09-25 15:10:00,
2013-09-25 11:15:00,54.0,47.3,29.91,West,259,0.0,0.0,78,0.00,CLR,,0.00,WeatherDisplay:10.37,2013-09-25 15:15:00,
2013-09-25 11:20:00,54.0,47.3,29.91,WSW,248,0.0,0.0,78,0.00,CLR,,0.00,WeatherDisplay:10.37,2013-09-25 15:20:00,
2013-09-25 11:25:00,54.0,47.3,29.91,WSW,248,0.0,0.0,78,0.00,CLR,,0.00,WeatherDisplay:10.37,2013-09-25 15:25:00,
2013-09-25 11:30:00,54.0,47.3,29.91,WSW,248,0.0,0.0,78,0.00,CLR,,0.00,WeatherDisplay:10.37,2013-09-25 15:30:00,
2013-09-25 11:35:00,54.0,47.3,29.91,WSW,248,0.0,0.0,78,0.00,CLR,,0.00,WeatherDisplay:10.37,2013-09-25 15:35:00,
2013-09-25 11:40:00,54.0,47.3,29.91,WSW,248,0.0,0.0,78,0.00,CLR,,0.00,WeatherDisplay:10.37,2013-09-25 15:40:00,
2013-09-25 11:45:00,54.0,47.3,29.91,WSW,248,0.0,0.0,78,0.00,CLR,,0.00,WeatherDisplay:10.37,2013-09-25 15:45:00,
2013-09-25 11:50:00,54.0,47.3,29.91,WSW,248,0.0,0.0,78,0.00,CLR,,0.00,WeatherDisplay:10.37,2013-09-25 15:50:00,
2013-09-25 11:55:00,54.0,47.3,29.91,WSW,248,0.0,0.0,78,0.00,CLR,,0.00,WeatherDisplay:10.37,2013-09-25 15:55:00,
2013-09-25 12:00:00,54.0,47.0,29.91,WSW,248,0.0,0.0,77,0.00,CLR,,0.00,WeatherDisplay:10.37,2013-09-25 16:00:00,
2013-09-25 12:05:00,54.0,47.0,29.91,WSW,248,0.0,0.0,77,0.00,CLR,,0.00,WeatherDisplay:10.37,2013-09-25 16:05:00,
2013-09-25 12:10:00,54.0,47.0,29.91,West,261,0.0,0.0,77,0.00,CLR,,0.00,WeatherDisplay:10.37,2013-09-25 16:10:00,
2013-09-25 12:15:00,54.0,47.0,29.91,WNW,284,0.0,0.0,77,0.00,CLR,,0.00,WeatherDisplay:10.37,2013-09-25 16:15:00,
2013-09-25 12:20:00,54.0,45.9,29.91,WNW,298,0.0,0.0,74,0.00,CLR,,0.00,WeatherDisplay:10.37,2013-09-25 16:20:00,
2013-09-25 12:25:00,54.0,45.9,29.91,NNW,348,0.0,0.0,74,0.00,CLR,,0.00,WeatherDisplay:10.37,2013-09-25 16:25:00,
2013-09-25 12:30:00,54.0,45.9,29.91,NNE,22,0.0,0.0,74,0.00,CLR,,0.00,WeatherDisplay:10.37,2013-09-25 16:30:00,
2013-09-25 12:35:00,54.0,45.9,29.91,NNE,31,0.0,0.0,74,0.00,CLR,,0.00,WeatherDisplay:10.37,2013-09-25 16:35:00,
2013-09-25 12:40:00,54.0,45.9,29.91,NE,43,0.0,0.0,74,0.00,CLR,,0.00,WeatherDisplay:10.37,2013-09-25 16:40:00,
2013-09-25 12:45:00,54.0,45.9,29.91,NE,54,0.0,0.0,74,0.00,CLR,,0.00,WeatherDisplay:10.37,2013-09-25 16:45:00,
2013-09-25 12:50:00,54.0,45.9,29.91,ENE,77,0.0,0.0,74,0.00,CLR,,0.00,WeatherDisplay:10.37,2013-09-25 16:50:00,
2013-09-25 12:55:00,54.0,45.9,29.91,East,90,0.0,0.0,74,0.00,CLR,,0.00,WeatherDisplay:10.37,2013-09-25 16:55:00,
2013-09-25 13:00:00,53.0,45.3,29.94,SE,135,0.0,0.0,75,0.00,CLR,,0.00,WeatherDisplay:10.37,2013-09-25 17:00:00,
2013-09-25 13:05:00,53.0,45.3,29.94,South,180,0.0,0.0,75,0.00,CLR,,0.00,WeatherDisplay:10.37,2013-09-25 17:05:00,
2013-09-25 13:10:00,53.0,44.9,29.94,SSW,204,0.0,0.0,74,0.00,CLR,,0.00,WeatherDisplay:10.37,2013-09-25 17:10:00,
2013-09-25 13:15:00,53.0,44.9,29.94,WNW,303,0.0,0.0,74,0.00,CLR,,0.00,WeatherDisplay:10.37,2013-09-25 17:15:00,
2013-09-25 13:20:00,53.0,44.6,29.94,NW,317,0.0,0.0,73,0.00,CLR,,0.00,WeatherDisplay:10.37,2013-09-25 17:20:00,
2013-09-25 13:25:00,53.0,44.6,29.94,NNW,329,0.0,0.0,73,0.00,CLR,,0.00,WeatherDisplay:10.37,2013-09-25 17:25:00,
2013-09-25 13:30:00,53.0,44.6,29.94,NNW,338,0.0,0.0,73,0.00,CLR,,0.00,WeatherDisplay:10.37,2013-09-25 17:30:00,
2013-09-25 13:35:00,53.0,44.6,29.94,NNW,329,0.0,0.0,73,0.00,CLR,,0.00,WeatherDisplay:10.37,2013-09-25 17:35:00,
2013-09-25 13:40:00,53.0,44.6,29.94,NW,317,0.0,0.0,73,0.00,CLR,,0.00,WeatherDisplay:10.37,2013-09-25 17:40:00,
2013-09-25 13:45:00,53.0,44.6,29.94,NW,315,0.0,0.0,73,0.00,CLR,,0.00,WeatherDisplay:10.37,2013-09-25 17:45:00,
2013-09-25 13:50:00,53.0,44.6,29.94,NW,315,0.0,0.0,73,0.00,CLR,,0.00,WeatherDisplay:10.37,2013-09-25 17:50:00,
2013-09-25 13:55:00,53.0,44.6,29.94,NW,315,0.0,0.0,73,0.00,CLR,,0.00,WeatherDisplay:10.37,2013-09-25 17:55:00,
2013-09-25 14:00:00,53.0,44.6,29.94,NW,315,0.0,0.0,73,0.00,CLR,,0.00,WeatherDisplay:10.37,2013-09-25 18:00:00,
2013-09-25 14:05:00,53.0,44.6,29.94,NW,315,0.0,0.0,73,0.00,CLR,,0.00,WeatherDisplay:10.37,2013-09-25 18:05:00,
2013-09-25 14:10:00,53.0,44.6,29.94,NW,315,0.0,0.0,73,0.00,CLR,,0.00,WeatherDisplay:10.37,2013-09-25 18:10:00,
2013-09-25 14:15:00,53.0,44.6,29.94,NW,315,0.0,0.0,73,0.00,CLR,,0.00,WeatherDisplay:10.37,2013-09-25 18:15:00,
2013-09-25 14:20:00,53.0,44.9,29.94,NW,313,0.0,0.0,74,0.00,CLR,,0.00,WeatherDisplay:10.37,2013-09-25 18:20:00,
2013-09-25 14:25:00,53.0,44.9,29.94,WNW,301,0.0,0.0,74,0.00,CLR,,0.00,WeatherDisplay:10.37,2013-09-25 18:25:00,
2013-09-25 14:30:00,53.0,44.9,29.94,WNW,292,0.0,0.0,74,0.00,CLR,,0.00,WeatherDisplay:10.37,2013-09-25 18:30:00,
2013-09-25 14:35:00,53.0,44.9,29.94,NNW,334,0.0,0.0,74,0.00,CLR,,0.00,WeatherDisplay:10.37,2013-09-25 18:35:00,
2013-09-25 14:40:00,53.0,44.9,29.94,ENE,63,0.0,0.0,74,0.00,CLR,,0.00,WeatherDisplay:10.37,2013-09-25 18:40:00,
2013-09-25 14:45:00,53.0,44.9,29.94,ENE,59,0.0,0.0,74,0.00,CLR,,0.00,WeatherDisplay:10.37,2013-09-25 18:45:00,
2013-09-25 14:50:00,53.0,44.9,29.94,NE,35,0.0,0.0,74,0.00,CLR,,0.00,WeatherDisplay:10.37,2013-09-25 18:50:00,
2013-09-25 14:55:00,53.0,44.9,29.94,NNE,22,0.0,0.0,74,0.00,CLR,,0.00,WeatherDisplay:10.37,2013-09-25 18:55:00,
2013-09-25 15:00:00,53.0,45.3,29.94,North,349,0.0,0.0,75,0.00,CLR,,0.00,WeatherDisplay:10.37,2013-09-25 19:00:00,
2013-09-25 15:05:00,53.0,45.3,29.94,NW,315,0.0,0.0,75,0.00,CLR,,0.00,WeatherDisplay:10.37,2013-09-25 19:05:00,
2013-09-25 15:10:00,52.0,44.3,29.94,NNW,334,0.0,0.0,75,0.00,CLR,,0.00,WeatherDisplay:10.37,2013-09-25 19:10:00,
2013-09-25 15:15:00,52.0,44.3,29.94,North,10,0.0,0.0,75,0.00,CLR,,0.00,WeatherDisplay:10.37,2013-09-25 19:15:00,
2013-09-25 15:20:00,52.0,44.3,29.94,NNE,24,0.0,0.0,75,0.00,CLR,,0.00,WeatherDisplay:10.37,2013-09-25 19:20:00,
2013-09-25 15:25:00,52.0,44.3,29.94,NE,36,0.0,0.0,75,0.00,CLR,,0.00,WeatherDisplay:10.37,2013-09-25 19:25:00,
2013-09-25 15:30:00,52.0,44.3,29.94,NE,45,0.0,0.0,75,0.00,CLR,,0.00,WeatherDisplay:10.37,2013-09-25 19:30:00,
2013-09-25 15:35:00,52.0,44.3,29.94,NE,36,0.0,0.0,75,0.00,CLR,,0.00,WeatherDisplay:10.37,2013-09-25 19:35:00,
2013-09-25 15:40:00,52.0,44.3,29.94,NNE,24,0.0,0.0,75,0.00,CLR,,0.00,WeatherDisplay:10.37,2013-09-25 19:40:00,
2013-09-25 15:45:00,52.0,44.3,29.94,NNE,22,0.0,0.0,75,0.00,CLR,,0.00,WeatherDisplay:10.37,2013-09-25 19:45:00,
2013-09-25 15:50:00,52.0,44.3,29.94,NNE,22,0.0,0.0,75,0.00,CLR,,0.00,WeatherDisplay:10.37,2013-09-25 19:50:00,
2013-09-25 15:55:00,52.0,44.3,29.94,NNE,22,0.0,0.0,75,0.00,CLR,,0.00,WeatherDisplay:10.37,2013-09-25 19:55:00,
2013-09-25 16:00:00,52.0,44.3,29.94,ENE,67,0.0,0.0,75,0.00,CLR,,0.00,WeatherDisplay:10.37,2013-09-25 20:00:00,
2013-09-25 16:05:00,52.0,44.3,29.94,ESE,112,0.0,0.0,75,0.00,CLR,,0.00,WeatherDisplay:10.37,2013-09-25 20:05:00,
2013-09-25 16:10:00,52.0,44.3,29.94,ESE,112,0.0,0.0,75,0.00,CLR,,0.00,WeatherDisplay:10.37,2013-09-25 20:10:00,
2013-09-25 16:15:00,52.0,44.3,29.94,ESE,112,0.0,0.0,75,0.00,CLR,,0.00,WeatherDisplay:10.37,2013-09-25 20:15:00,
2013-09-25 16:20:00,52.0,44.3,29.94,ESE,112,0.0,0.0,75,0.00,CLR,,0.00,WeatherDisplay:10.37,2013-09-25 20:20:00,
2013-09-25 16:25:00,52.0,44.3,29.94,ESE,112,0.0,0.0,75,0.00,CLR,,0.00,WeatherDisplay:10.37,2013-09-25 20:25:00,
2013-09-25 16:30:00,52.0,44.3,29.94,ESE,112,0.0,0.0,75,0.00,CLR,,0.00,WeatherDisplay:10.37,2013-09-25 20:30:00,
2013-09-25 16:35:00,51.0,43.7,29.94,ENE,78,0.0,0.0,76,0.00,CLR,,0.00,WeatherDisplay:10.37,2013-09-25 20:35:00,
2013-09-25 16:40:00,51.0,43.7,29.94,NW,318,0.0,0.0,76,0.00,CLR,,0.00,WeatherDisplay:10.37,2013-09-25 20:40:00,
2013-09-25 16:45:00,51.0,43.7,29.94,NW,310,0.0,0.0,76,0.00,CLR,,0.00,WeatherDisplay:10.37,2013-09-25 20:45:00,
2013-09-25 16:50:00,51.0,43.7,29.94,WNW,299,0.0,0.0,76,0.00,CLR,,0.00,WeatherDisplay:10.37,2013-09-25 20:50:00,
2013-09-25 16:55:00,51.0,43.7,29.94,WNW,292,0.0,0.0,76,0.00,CLR,,0.00,WeatherDisplay:10.37,2013-09-25 20:55:00,
2013-09-25 17:00:00,50.0,43.1,29.94,WNW,292,0.0,0.0,77,0.00,CLR,,0.00,WeatherDisplay:10.37,2013-09-25 21:00:00,
2013-09-25 17:05:00,50.0,43.1,29.94,WNW,292,0.0,0.0,77,0.00,CLR,,0.00,WeatherDisplay:10.37,2013-09-25 21:05:00,
2013-09-25 17:10:00,50.0,43.7,29.94,WNW,292,1.0,2.0,79,0.00,CLR,,0.00,WeatherDisplay:10.37,2013-09-25 21:10:00,
2013-09-25 17:15:00,50.0,43.7,29.94,WNW,292,1.0,2.0,79,0.00,CLR,,0.00,WeatherDisplay:10.37,2013-09-25 21:15:00,
2013-09-25 17:20:00,50.0,44.1,29.94,WNW,292,0.0,2.0,80,0.00,CLR,,0.00,WeatherDisplay:10.37,2013-09-25 21:20:00,
2013-09-25 17:25:00,50.0,44.1,29.94,WNW,292,0.0,0.0,80,0.00,CLR,,0.00,WeatherDisplay:10.37,2013-09-25 21:25:00,
2013-09-25 17:30:00,50.0,44.1,29.94,WNW,292,0.0,0.0,80,0.00,CLR,,0.00,WeatherDisplay:10.37,2013-09-25 21:30:00,
2013-09-25 17:35:00,50.0,44.1,29.94,WNW,301,0.0,0.0,80,0.00,CLR,,0.00,WeatherDisplay:10.37,2013-09-25 21:35:00,
2013-09-25 17:40:00,50.0,44.1,29.94,NW,313,0.0,0.0,80,0.00,CLR,,0.00,WeatherDisplay:10.37,2013-09-25 21:40:00,
2013-09-25 17:45:00,50.0,44.1,29.94,NW,315,0.0,0.0,80,0.00,CLR,,0.00,WeatherDisplay:10.37,2013-09-25 21:45:00,
2013-09-25 17:50:00,50.0,44.1,29.94,NW,315,0.0,0.0,80,0.00,CLR,,0.00,WeatherDisplay:10.37,2013-09-25 21:50:00,
2013-09-25 17:55:00,50.0,44.1,29.94,NW,315,0.0,0.0,80,0.00,CLR,,0.00,WeatherDisplay:10.37,2013-09-25 21:55:00,
2013-09-25 18:00:00,50.0,44.1,29.94,NW,315,0.0,0.0,80,0.00,CLR,,0.00,WeatherDisplay:10.37,2013-09-25 22:00:00,
2013-09-25 18:05:00,50.0,44.1,29.94,NW,315,0.0,0.0,80,0.00,CLR,,0.00,WeatherDisplay:10.37,2013-09-25 22:05:00,
2013-09-25 18:10:00,50.0,44.1,29.94,NW,315,0.0,0.0,80,0.00,CLR,,0.00,WeatherDisplay:10.37,2013-09-25 22:10:00,
2013-09-25 18:15:00,50.0,44.1,29.94,NW,315,0.0,0.0,80,0.00,CLR,,0.00,WeatherDisplay:10.37,2013-09-25 22:15:00,
2013-09-25 18:20:00,50.0,44.1,29.94,NW,317,0.0,0.0,80,0.00,CLR,,0.00,WeatherDisplay:10.37,2013-09-25 22:20:00,
2013-09-25 18:25:00,50.0,44.1,29.94,NNW,329,0.0,0.0,80,0.00,CLR,,0.00,WeatherDisplay:10.37,2013-09-25 22:25:00,
2013-09-25 18:30:00,50.0,44.1,29.94,NNW,338,0.0,0.0,80,0.00,CLR,,0.00,WeatherDisplay:10.37,2013-09-25 22:30:00,
2013-09-25 18:35:00,50.0,44.1,29.94,NNW,338,0.0,0.0,80,0.00,CLR,,0.00,WeatherDisplay:10.37,2013-09-25 22:35:00,
2013-09-25 18:40:00,50.0,44.1,29.94,NNW,338,0.0,0.0,80,0.00,CLR,,0.00,WeatherDisplay:10.37,2013-09-25 22:40:00,
2013-09-25 18:45:00,50.0,43.7,29.94,NNW,338,0.0,0.0,79,0.00,CLR,,0.00,WeatherDisplay:10.37,2013-09-25 22:45:00,
2013-09-25 18:50:00,50.0,43.7,29.94,NNW,338,0.0,0.0,79,0.00,CLR,,0.00,WeatherDisplay:10.37,2013-09-25 22:50:00,
2013-09-25 18:55:00,50.0,43.7,29.94,NNW,338,0.0,0.0,79,0.00,CLR,,0.00,WeatherDisplay:10.37,2013-09-25 22:55:00,
2013-09-25 19:00:00,50.0,43.7,29.94,NW,326,0.0,0.0,79,0.00,CLR,,0.00,WeatherDisplay:10.37,2013-09-25 23:00:00,
2013-09-25 19:05:00,50.0,43.7,29.94,NW,315,0.0,0.0,79,0.00,CLR,,0.00,WeatherDisplay:10.37,2013-09-25 23:05:00,
2013-09-25 19:10:00,50.0,43.7,29.94,NW,308,0.0,0.0,79,0.00,CLR,,0.00,WeatherDisplay:10.37,2013-09-25 23:10:00,
2013-09-25 19:15:00,50.0,43.7,29.94,WNW,297,0.0,0.0,79,0.00,CLR,,0.00,WeatherDisplay:10.37,2013-09-25 23:15:00,
2013-09-25 19:20:00,50.0,43.4,29.94,WNW,294,0.0,0.0,78,0.00,CLR,,0.00,WeatherDisplay:10.37,2013-09-25 23:20:00,
2013-09-25 19:25:00,50.0,43.4,29.94,NW,306,0.0,0.0,78,0.00,CLR,,0.00,WeatherDisplay:10.37,2013-09-25 23:25:00,
2013-09-25 19:30:00,50.0,43.4,29.94,NW,315,0.0,0.0,78,0.00,CLR,,0.00,WeatherDisplay:10.37,2013-09-25 23:30:00,
2013-09-25 19:35:00,50.0,43.4,29.97,NW,306,0.0,0.0,78,0.00,CLR,,0.00,WeatherDisplay:10.37,2013-09-25 23:35:00,
2013-09-25 19:40:00,50.0,43.4,29.97,WNW,294,0.0,0.0,78,0.00,CLR,,0.00,WeatherDisplay:10.37,2013-09-25 23:40:00,
2013-09-25 19:45:00,50.0,43.4,29.97,WNW,297,0.0,0.0,78,0.00,CLR,,0.00,WeatherDisplay:10.37,2013-09-25 23:45:00,
2013-09-25 19:50:00,50.0,43.4,29.97,NW,308,0.0,0.0,78,0.00,CLR,,0.00,WeatherDisplay:10.37,2013-09-25 23:50:00,
2013-09-25 19:55:00,50.0,43.4,29.97,NW,315,0.0,0.0,78,0.00,CLR,,0.00,WeatherDisplay:10.37,2013-09-25 23:55:00,
2013-09-25 20:00:00,50.0,43.4,29.97,NW,315,0.0,0.0,78,0.00,CLR,,0.00,WeatherDisplay:10.37,2013-09-26 00:00:00,
2013-09-25 20:05:00,50.0,43.4,29.97,NW,315,0.0,0.0,78,0.00,CLR,,0.00,WeatherDisplay:10.37,2013-09-26 00:05:00,
2013-09-25 20:10:00,52.0,45.0,29.97,NW,315,0.0,0.0,77,0.00,CLR,,0.00,WeatherDisplay:10.37,2013-09-26 00:10:00,
2013-09-25 20:15:00,52.0,45.0,29.97,NW,315,0.0,0.0,77,0.00,CLR,,0.00,WeatherDisplay:10.37,2013-09-26 00:15:00,
2013-09-25 20:20:00,54.0,44.8,29.97,NW,313,0.0,0.0,71,0.00,CLR,,0.00,WeatherDisplay:10.37,2013-09-26 00:20:00,
2013-09-25 20:25:00,54.0,44.8,29.97,WNW,301,0.0,0.0,71,0.00,CLR,,0.00,WeatherDisplay:10.37,2013-09-26 00:25:00,
2013-09-25 20:30:00,54.0,44.8,29.97,WNW,292,0.0,0.0,71,0.00,CLR,,0.00,WeatherDisplay:10.37,2013-09-26 00:30:00,
2013-09-25 20:35:00,53.0,43.8,29.97,NW,310,0.0,0.0,71,0.00,CLR,,0.00,WeatherDisplay:10.37,2013-09-26 00:35:00,
2013-09-25 20:40:00,53.0,43.8,29.97,NNW,334,0.0,0.0,71,0.00,CLR,,0.00,WeatherDisplay:10.37,2013-09-26 00:40:00,
2013-09-25 20:45:00,54.0,44.4,29.97,North,350,0.0,0.0,70,0.00,CLR,,0.00,WeatherDisplay:10.37,2013-09-26 00:45:00,
2013-09-25 20:50:00,54.0,44.4,29.97,NNE,26,0.0,0.0,70,0.00,CLR,,0.00,WeatherDisplay:10.37,2013-09-26 00:50:00,
2013-09-25 20:55:00,54.0,44.4,29.97,NE,45,0.0,0.0,70,0.00,CLR,,0.00,WeatherDisplay:10.37,2013-09-26 00:55:00,
2013-09-25 21:00:00,56.0,44.8,29.97,ENE,58,1.0,2.0,66,0.00,CLR,,0.00,WeatherDisplay:10.37,2013-09-26 01:00:00,
2013-09-25 21:05:00,56.0,44.8,29.97,ENE,68,1.0,2.0,66,0.00,CLR,,0.00,WeatherDisplay:10.37,2013-09-26 01:05:00,
2013-09-25 21:10:00,56.0,44.4,29.97,East,87,0.0,2.0,65,0.00,CLR,,0.00,WeatherDisplay:10.37,2013-09-26 01:10:00,
2013-09-25 21:15:00,56.0,44.4,29.97,SE,141,0.0,0.0,65,0.00,CLR,,0.00,WeatherDisplay:10.37,2013-09-26 01:15:00,
2013-09-25 21:20:00,56.0,44.4,29.97,SSE,158,0.0,0.0,65,0.00,CLR,,0.00,WeatherDisplay:10.37,2013-09-26 01:20:00,
2013-09-25 21:25:00,56.0,44.4,29.97,SSE,162,0.0,0.0,65,0.00,CLR,,0.00,WeatherDisplay:10.37,2013-09-26 01:25:00,
2013-09-25 21:30:00,56.0,44.4,29.97,South,180,0.0,0.0,65,0.00,CLR,,0.00,WeatherDisplay:10.37,2013-09-26 01:30:00,
2013-09-25 21:35:00,57.0,44.9,29.97,West,259,1.0,2.0,64,0.00,CLR,,0.00,WeatherDisplay:10.37,2013-09-26 01:35:00,
2013-09-25 21:40:00,57.0,44.9,29.97,West,269,1.0,2.0,64,0.00,CLR,,0.00,WeatherDisplay:10.37,2013-09-26 01:40:00,
2013-09-25 21:45:00,59.0,45.1,29.97,WNW,290,1.0,2.0,60,0.00,CLR,,0.00,WeatherDisplay:10.37,2013-09-26 01:45:00,
2013-09-25 21:50:00,59.0,45.1,29.97,North,4,1.0,2.0,60,0.00,CLR,,0.00,WeatherDisplay:10.37,2013-09-26 01:50:00,
2013-09-25 21:55:00,59.0,45.1,29.97,NNE,22,1.0,2.0,60,0.00,CLR,,0.00,WeatherDisplay:10.37,2013-09-26 01:55:00,
2013-09-25 22:00:00,60.0,45.2,29.97,NE,50,1.0,3.0,58,0.00,CLR,,0.00,WeatherDisplay:10.37,2013-09-26 02:00:00,
2013-09-25 22:05:00,60.0,45.2,29.97,ESE,112,1.0,3.0,58,0.00,CLR,,0.00,WeatherDisplay:10.37,2013-09-26 02:05:00,
2013-09-25 22:10:00,59.0,44.2,29.97,SSE,151,1.0,3.0,58,0.00,CLR,,0.00,WeatherDisplay:10.37,2013-09-26 02:10:00,
2013-09-25 22:15:00,59.0,44.2,29.97,West,266,1.0,0.0,58,0.00,CLR,,0.00,WeatherDisplay:10.37,2013-09-26 02:15:00,
2013-09-25 22:20:00,61.0,46.1,30.00,West,280,2.0,3.0,58,0.00,CLR,,0.00,WeatherDisplay:10.37,2013-09-26 02:20:00,
2013-09-25 22:25:00,61.0,46.1,30.00,North,357,2.0,3.0,58,0.00,CLR,,0.00,WeatherDisplay:10.37,2013-09-26 02:25:00,
2013-09-25 22:30:00,61.0,46.1,30.00,NNE,22,2.0,3.0,58,0.00,CLR,,0.00,WeatherDisplay:10.37,2013-09-26 02:30:00,
2013-09-25 22:35:00,61.0,45.7,30.00,NNE,32,2.0,3.0,57,0.00,CLR,,0.00,WeatherDisplay:10.37,2013-09-26 02:35:00,
2013-09-25 22:40:00,61.0,45.7,30.00,NE,43,2.0,2.0,57,0.00,CLR,,0.00,WeatherDisplay:10.37,2013-09-26 02:40:00,
2013-09-25 22:45:00,62.0,45.6,30.00,ENE,66,3.0,3.0,55,0.00,CLR,,0.00,WeatherDisplay:10.37,2013-09-26 02:45:00,
2013-09-25 22:50:00,62.0,45.6,30.00,SE,141,3.0,3.0,55,0.00,CLR,,0.00,WeatherDisplay:10.37,2013-09-26 02:50:00,
2013-09-25 22:55:00,62.0,45.6,30.00,SSE,158,3.0,3.0,55,0.00,CLR,,0.00,WeatherDisplay:10.37,2013-09-26 02:55:00,
2013-09-25 23:00:00,61.0,45.2,30.00,SE,125,2.0,2.0,56,0.00,CLR,,0.00,WeatherDisplay:10.37,2013-09-26 03:00:00,
2013-09-25 23:05:00,61.0,45.2,30.00,ENE,68,2.0,2.0,56,0.00,CLR,,0.00,WeatherDisplay:10.37,2013-09-26 03:05:00,
2013-09-25 23:10:00,64.0,47.0,30.00,ENE,68,5.0,5.0,54,0.00,CLR,,0.00,WeatherDisplay:10.37,2013-09-26 03:10:00,
2013-09-25 23:15:00,64.0,47.0,30.00,ENE,68,5.0,5.0,54,0.00,CLR,,0.00,WeatherDisplay:10.37,2013-09-26 03:15:00,
2013-09-25 23:20:00,61.0,45.2,30.00,ENE,67,2.0,2.0,56,0.00,CLR,,0.00,WeatherDisplay:10.37,2013-09-26 03:20:00,
2013-09-25 23:25:00,61.0,45.2,30.00,ENE,58,2.0,2.0,56,0.00,CLR,,0.00,WeatherDisplay:10.37,2013-09-26 03:25:00,
2013-09-25 23:30:00,61.0,45.2,30.00,NE,45,2.0,2.0,56,0.00,CLR,,0.00,WeatherDisplay:10.37,2013-09-26 03:30:00,
2013-09-25 23:35:00,65.0,47.4,30.00,East,97,5.0,5.0,53,0.00,CLR,,0.00,WeatherDisplay:10.37,2013-09-26 03:35:00,
2013-09-25 23:40:00,65.0,47.4,30.00,SE,132,5.0,5.0,53,0.00,CLR,,0.00,WeatherDisplay:10.37,2013-09-26 03:40:00,
2013-09-25 23:45:00,63.0,46.6,30.00,SE,127,2.0,5.0,55,0.00,CLR,,0.00,WeatherDisplay:10.37,2013-09-26 03:45:00,
2013-09-25 23:50:00,63.0,46.6,30.00,East,82,2.0,3.0,55,0.00,CLR,,0.00,WeatherDisplay:10.37,2013-09-26 03:50:00,
2013-09-25 23:55:00,63.0,46.6,30.00,NE,45,2.0,3.0,55,0.00,CLR,,0.00,WeatherDisplay:10.37,2013-09-26 03:55:00,